sensor_id;sensor_type;location;lat;lon;timestamp;P1;durP1;ratioP1;P2;durP2;ratioP2
46561;SDS011;32289;42.688;23.330;2023-04-24T00:00:57;4.32;;;2.88;;
46561;SDS011;32289;42.688;23.330;2023-04-24T00:04:38;5.53;;;3.20;;
46561;SDS011;32289;42.688;23.330;2023-04-24T00:08:24;5.72;;;3.00;;
46561;SDS011;32289;42.688;23.330;2023-04-24T00:12:05;4.53;;;2.60;;
46561;SDS011;32289;42.688;23.330;2023-04-24T00:15:46;9.43;;;2.38;;
46561;SDS011;32289;42.688;23.330;2023-04-24T00:19:27;5.78;;;2.55;;
46561;SDS011;32289;42.688;23.330;2023-04-24T00:23:09;9.93;;;2.85;;
46561;SDS011;32289;42.688;23.330;2023-04-24T00:26:49;7.20;;;2.50;;
46561;SDS011;32289;42.688;23.330;2023-04-24T00:30:30;6.03;;;2.28;;
46561;SDS011;32289;42.688;23.330;2023-04-24T00:34:11;5.57;;;2.70;;
46561;SDS011;32289;42.688;23.330;2023-04-24T00:37:52;5.35;;;2.90;;
46561;SDS011;32289;42.688;23.330;2023-04-24T00:41:33;9.02;;;2.60;;
46561;SDS011;32289;42.688;23.330;2023-04-24T00:45:14;3.97;;;1.95;;
46561;SDS011;32289;42.688;23.330;2023-04-24T00:48:55;4.60;;;2.58;;
46561;SDS011;32289;42.688;23.330;2023-04-24T00:52:36;5.10;;;2.45;;
46561;SDS011;32289;42.688;23.330;2023-04-24T00:56:17;5.80;;;2.83;;
46561;SDS011;32289;42.688;23.330;2023-04-24T00:59:58;4.03;;;2.33;;
46561;SDS011;32289;42.688;23.330;2023-04-24T01:03:39;4.38;;;2.50;;
46561;SDS011;32289;42.688;23.330;2023-04-24T01:07:20;4.47;;;2.30;;
46561;SDS011;32289;42.688;23.330;2023-04-24T01:11:02;3.85;;;2.42;;
46561;SDS011;32289;42.688;23.330;2023-04-24T01:14:44;4.05;;;2.25;;
46561;SDS011;32289;42.688;23.330;2023-04-24T01:18:25;4.63;;;2.63;;
46561;SDS011;32289;42.688;23.330;2023-04-24T01:22:11;5.45;;;2.35;;
46561;SDS011;32289;42.688;23.330;2023-04-24T01:25:58;4.50;;;2.55;;
46561;SDS011;32289;42.688;23.330;2023-04-24T01:29:40;7.78;;;2.80;;
46561;SDS011;32289;42.688;23.330;2023-04-24T01:33:21;5.40;;;2.47;;
46561;SDS011;32289;42.688;23.330;2023-04-24T01:37:02;5.93;;;2.80;;
46561;SDS011;32289;42.688;23.330;2023-04-24T01:40:46;4.32;;;2.78;;
46561;SDS011;32289;42.688;23.330;2023-04-24T01:44:27;4.68;;;2.90;;
46561;SDS011;32289;42.688;23.330;2023-04-24T01:48:08;3.60;;;2.30;;
46561;SDS011;32289;42.688;23.330;2023-04-24T01:51:49;3.80;;;2.20;;
46561;SDS011;32289;42.688;23.330;2023-04-24T01:55:29;5.15;;;2.47;;
46561;SDS011;32289;42.688;23.330;2023-04-24T01:59:11;6.43;;;2.80;;
46561;SDS011;32289;42.688;23.330;2023-04-24T02:02:51;6.18;;;2.42;;
46561;SDS011;32289;42.688;23.330;2023-04-24T02:06:32;8.73;;;2.83;;
46561;SDS011;32289;42.688;23.330;2023-04-24T02:10:13;6.47;;;2.88;;
46561;SDS011;32289;42.688;23.330;2023-04-24T02:13:54;4.30;;;2.38;;
46561;SDS011;32289;42.688;23.330;2023-04-24T02:17:35;4.38;;;2.67;;
46561;SDS011;32289;42.688;23.330;2023-04-24T02:21:16;4.13;;;2.30;;
46561;SDS011;32289;42.688;23.330;2023-04-24T02:24:56;6.13;;;3.20;;
46561;SDS011;32289;42.688;23.330;2023-04-24T02:28:37;5.95;;;2.72;;
46561;SDS011;32289;42.688;23.330;2023-04-24T02:32:18;5.18;;;2.67;;
46561;SDS011;32289;42.688;23.330;2023-04-24T02:35:59;4.40;;;2.95;;
46561;SDS011;32289;42.688;23.330;2023-04-24T02:39:40;5.00;;;3.13;;
46561;SDS011;32289;42.688;23.330;2023-04-24T02:43:20;5.82;;;2.70;;
46561;SDS011;32289;42.688;23.330;2023-04-24T02:47:01;6.00;;;2.72;;
46561;SDS011;32289;42.688;23.330;2023-04-24T02:50:42;4.63;;;2.78;;
46561;SDS011;32289;42.688;23.330;2023-04-24T02:54:24;5.97;;;2.60;;
46561;SDS011;32289;42.688;23.330;2023-04-24T02:58:04;12.10;;;3.55;;
46561;SDS011;32289;42.688;23.330;2023-04-24T03:01:45;4.07;;;2.58;;
46561;SDS011;32289;42.688;23.330;2023-04-24T03:05:26;6.70;;;2.85;;
46561;SDS011;32289;42.688;23.330;2023-04-24T03:09:07;5.88;;;3.47;;
46561;SDS011;32289;42.688;23.330;2023-04-24T03:12:48;5.20;;;2.75;;
46561;SDS011;32289;42.688;23.330;2023-04-24T03:16:29;6.95;;;3.08;;
46561;SDS011;32289;42.688;23.330;2023-04-24T03:20:09;4.50;;;2.67;;
46561;SDS011;32289;42.688;23.330;2023-04-24T03:23:50;3.88;;;2.67;;
46561;SDS011;32289;42.688;23.330;2023-04-24T03:27:31;6.03;;;2.60;;
46561;SDS011;32289;42.688;23.330;2023-04-24T03:31:12;6.35;;;2.92;;
46561;SDS011;32289;42.688;23.330;2023-04-24T03:34:52;6.60;;;3.42;;
46561;SDS011;32289;42.688;23.330;2023-04-24T03:38:33;4.53;;;2.95;;
46561;SDS011;32289;42.688;23.330;2023-04-24T03:42:14;6.78;;;3.38;;
46561;SDS011;32289;42.688;23.330;2023-04-24T03:45:55;5.95;;;3.13;;
46561;SDS011;32289;42.688;23.330;2023-04-24T03:49:36;5.38;;;3.22;;
46561;SDS011;32289;42.688;23.330;2023-04-24T03:53:16;6.22;;;3.05;;
46561;SDS011;32289;42.688;23.330;2023-04-24T03:56:57;9.27;;;3.88;;
46561;SDS011;32289;42.688;23.330;2023-04-24T04:00:38;8.93;;;4.68;;
46561;SDS011;32289;42.688;23.330;2023-04-24T04:04:20;6.90;;;3.78;;
46561;SDS011;32289;42.688;23.330;2023-04-24T04:08:00;6.75;;;3.75;;
46561;SDS011;32289;42.688;23.330;2023-04-24T04:11:42;8.48;;;4.10;;
46561;SDS011;32289;42.688;23.330;2023-04-24T04:15:22;5.70;;;3.35;;
46561;SDS011;32289;42.688;23.330;2023-04-24T04:19:03;10.48;;;3.58;;
46561;SDS011;32289;42.688;23.330;2023-04-24T04:22:44;3.50;;;2.20;;
46561;SDS011;32289;42.688;23.330;2023-04-24T04:26:24;4.22;;;2.22;;
46561;SDS011;32289;42.688;23.330;2023-04-24T04:30:05;6.03;;;2.53;;
46561;SDS011;32289;42.688;23.330;2023-04-24T04:33:46;5.15;;;2.80;;
46561;SDS011;32289;42.688;23.330;2023-04-24T04:37:27;3.25;;;2.03;;
46561;SDS011;32289;42.688;23.330;2023-04-24T04:41:11;8.23;;;2.30;;
46561;SDS011;32289;42.688;23.330;2023-04-24T04:44:52;9.07;;;2.40;;
46561;SDS011;32289;42.688;23.330;2023-04-24T04:48:33;6.40;;;3.22;;
46561;SDS011;32289;42.688;23.330;2023-04-24T04:52:14;5.25;;;2.30;;
46561;SDS011;32289;42.688;23.330;2023-04-24T04:55:55;6.18;;;2.80;;
46561;SDS011;32289;42.688;23.330;2023-04-24T04:59:36;3.85;;;2.50;;
46561;SDS011;32289;42.688;23.330;2023-04-24T05:03:17;7.90;;;2.72;;
46561;SDS011;32289;42.688;23.330;2023-04-24T05:06:58;6.20;;;1.83;;
46561;SDS011;32289;42.688;23.330;2023-04-24T05:10:38;6.15;;;3.08;;
46561;SDS011;32289;42.688;23.330;2023-04-24T05:14:19;4.88;;;3.08;;
46561;SDS011;32289;42.688;23.330;2023-04-24T05:18:00;6.38;;;3.00;;
46561;SDS011;32289;42.688;23.330;2023-04-24T05:21:41;8.38;;;3.42;;
46561;SDS011;32289;42.688;23.330;2023-04-24T05:25:21;10.23;;;3.58;;
46561;SDS011;32289;42.688;23.330;2023-04-24T05:29:02;7.15;;;3.55;;
46561;SDS011;32289;42.688;23.330;2023-04-24T05:32:43;10.48;;;4.53;;
46561;SDS011;32289;42.688;23.330;2023-04-24T05:36:24;6.78;;;3.83;;
46561;SDS011;32289;42.688;23.330;2023-04-24T05:40:07;6.78;;;3.65;;
46561;SDS011;32289;42.688;23.330;2023-04-24T05:43:48;8.98;;;4.00;;
46561;SDS011;32289;42.688;23.330;2023-04-24T05:47:29;7.18;;;3.90;;
46561;SDS011;32289;42.688;23.330;2023-04-24T05:51:10;7.13;;;4.00;;
46561;SDS011;32289;42.688;23.330;2023-04-24T05:54:51;11.20;;;3.83;;
46561;SDS011;32289;42.688;23.330;2023-04-24T05:58:31;6.40;;;3.88;;
46561;SDS011;32289;42.688;23.330;2023-04-24T06:02:12;6.68;;;3.75;;
46561;SDS011;32289;42.688;23.330;2023-04-24T06:05:53;12.07;;;6.18;;
46561;SDS011;32289;42.688;23.330;2023-04-24T06:09:33;10.45;;;4.40;;
46561;SDS011;32289;42.688;23.330;2023-04-24T06:13:14;6.72;;;3.97;;
46561;SDS011;32289;42.688;23.330;2023-04-24T06:16:55;6.57;;;3.67;;
46561;SDS011;32289;42.688;23.330;2023-04-24T06:20:36;9.07;;;3.55;;
46561;SDS011;32289;42.688;23.330;2023-04-24T06:24:17;9.40;;;4.32;;
46561;SDS011;32289;42.688;23.330;2023-04-24T06:27:58;9.88;;;4.60;;
46561;SDS011;32289;42.688;23.330;2023-04-24T06:31:38;10.52;;;3.92;;
46561;SDS011;32289;42.688;23.330;2023-04-24T06:35:20;9.93;;;4.53;;
46561;SDS011;32289;42.688;23.330;2023-04-24T06:39:04;11.57;;;4.50;;
46561;SDS011;32289;42.688;23.330;2023-04-24T06:42:45;10.30;;;5.10;;
46561;SDS011;32289;42.688;23.330;2023-04-24T06:46:25;8.80;;;3.90;;
46561;SDS011;32289;42.688;23.330;2023-04-24T06:50:07;8.88;;;3.67;;
46561;SDS011;32289;42.688;23.330;2023-04-24T06:53:48;8.48;;;5.35;;
46561;SDS011;32289;42.688;23.330;2023-04-24T06:57:30;7.75;;;4.70;;
46561;SDS011;32289;42.688;23.330;2023-04-24T07:01:11;9.27;;;4.32;;
46561;SDS011;32289;42.688;23.330;2023-04-24T07:04:52;6.28;;;4.10;;
46561;SDS011;32289;42.688;23.330;2023-04-24T07:08:33;6.00;;;3.67;;
46561;SDS011;32289;42.688;23.330;2023-04-24T07:12:13;8.68;;;3.67;;
46561;SDS011;32289;42.688;23.330;2023-04-24T07:15:54;5.95;;;4.43;;
46561;SDS011;32289;42.688;23.330;2023-04-24T07:19:36;6.30;;;4.38;;
46561;SDS011;32289;42.688;23.330;2023-04-24T07:23:17;8.20;;;4.03;;
46561;SDS011;32289;42.688;23.330;2023-04-24T07:26:58;5.88;;;3.92;;
46561;SDS011;32289;42.688;23.330;2023-04-24T07:30:41;7.32;;;4.05;;
46561;SDS011;32289;42.688;23.330;2023-04-24T07:34:21;6.40;;;4.30;;
46561;SDS011;32289;42.688;23.330;2023-04-24T07:38:02;4.50;;;3.75;;
46561;SDS011;32289;42.688;23.330;2023-04-24T07:41:43;6.07;;;3.65;;
46561;SDS011;32289;42.688;23.330;2023-04-24T07:45:23;5.22;;;3.45;;
46561;SDS011;32289;42.688;23.330;2023-04-24T07:49:06;6.90;;;3.60;;
46561;SDS011;32289;42.688;23.330;2023-04-24T07:52:46;11.10;;;4.68;;
46561;SDS011;32289;42.688;23.330;2023-04-24T07:56:27;6.32;;;3.60;;
46561;SDS011;32289;42.688;23.330;2023-04-24T08:00:11;5.05;;;3.47;;
46561;SDS011;32289;42.688;23.330;2023-04-24T08:03:52;5.90;;;3.17;;
46561;SDS011;32289;42.688;23.330;2023-04-24T08:07:32;6.32;;;3.50;;
46561;SDS011;32289;42.688;23.330;2023-04-24T08:11:13;5.22;;;3.17;;
46561;SDS011;32289;42.688;23.330;2023-04-24T08:14:54;9.30;;;4.53;;
46561;SDS011;32289;42.688;23.330;2023-04-24T08:18:35;7.57;;;3.50;;
46561;SDS011;32289;42.688;23.330;2023-04-24T08:22:16;5.00;;;3.42;;
46561;SDS011;32289;42.688;23.330;2023-04-24T08:25:56;4.10;;;3.05;;
46561;SDS011;32289;42.688;23.330;2023-04-24T08:29:37;7.35;;;2.58;;
46561;SDS011;32289;42.688;23.330;2023-04-24T08:33:18;3.85;;;3.03;;
46561;SDS011;32289;42.688;23.330;2023-04-24T08:36:59;3.97;;;2.75;;
46561;SDS011;32289;42.688;23.330;2023-04-24T08:40:39;5.05;;;2.50;;
46561;SDS011;32289;42.688;23.330;2023-04-24T08:44:21;3.60;;;2.58;;
46561;SDS011;32289;42.688;23.330;2023-04-24T08:48:02;5.30;;;2.55;;
46561;SDS011;32289;42.688;23.330;2023-04-24T08:51:44;4.38;;;2.30;;
46561;SDS011;32289;42.688;23.330;2023-04-24T08:55:27;4.13;;;2.60;;
46561;SDS011;32289;42.688;23.330;2023-04-24T08:59:10;4.40;;;2.75;;
46561;SDS011;32289;42.688;23.330;2023-04-24T09:02:53;6.18;;;3.35;;
46561;SDS011;32289;42.688;23.330;2023-04-24T09:06:34;8.93;;;5.63;;
46561;SDS011;32289;42.688;23.330;2023-04-24T09:10:15;3.22;;;2.35;;
46561;SDS011;32289;42.688;23.330;2023-04-24T09:13:56;3.08;;;2.20;;
46561;SDS011;32289;42.688;23.330;2023-04-24T09:17:37;4.97;;;2.40;;
46561;SDS011;32289;42.688;23.330;2023-04-24T09:21:20;6.15;;;2.70;;
46561;SDS011;32289;42.688;23.330;2023-04-24T09:25:03;6.20;;;2.70;;
46561;SDS011;32289;42.688;23.330;2023-04-24T09:28:46;4.32;;;2.67;;
46561;SDS011;32289;42.688;23.330;2023-04-24T09:32:27;3.70;;;2.63;;
46561;SDS011;32289;42.688;23.330;2023-04-24T09:36:10;6.25;;;3.60;;
46561;SDS011;32289;42.688;23.330;2023-04-24T09:43:53;6.07;;;2.75;;
46561;SDS011;32289;42.688;23.330;2023-04-24T09:47:41;9.68;;;4.78;;
46561;SDS011;32289;42.688;23.330;2023-04-24T09:51:34;4.53;;;2.58;;
46561;SDS011;32289;42.688;23.330;2023-04-24T09:55:19;5.07;;;3.67;;
46561;SDS011;32289;42.688;23.330;2023-04-24T09:59:07;5.43;;;2.65;;
46561;SDS011;32289;42.688;23.330;2023-04-24T10:03:23;3.80;;;2.47;;
46561;SDS011;32289;42.688;23.330;2023-04-24T10:06:57;3.47;;;2.00;;
46561;SDS011;32289;42.688;23.330;2023-04-24T10:10:40;3.30;;;2.50;;
46561;SDS011;32289;42.688;23.330;2023-04-24T10:14:23;5.63;;;3.15;;
46561;SDS011;32289;42.688;23.330;2023-04-24T10:18:05;5.28;;;2.50;;
46561;SDS011;32289;42.688;23.330;2023-04-24T10:21:48;4.05;;;2.33;;
46561;SDS011;32289;42.688;23.330;2023-04-24T10:25:30;5.75;;;2.78;;
46561;SDS011;32289;42.688;23.330;2023-04-24T10:29:17;5.85;;;2.70;;
46561;SDS011;32289;42.688;23.330;2023-04-24T10:32:59;3.50;;;2.05;;
46561;SDS011;32289;42.688;23.330;2023-04-24T10:36:41;3.10;;;2.30;;
46561;SDS011;32289;42.688;23.330;2023-04-24T10:40:27;3.70;;;2.15;;
46561;SDS011;32289;42.688;23.330;2023-04-24T10:44:14;3.08;;;1.98;;
46561;SDS011;32289;42.688;23.330;2023-04-24T10:48:03;4.07;;;2.42;;
46561;SDS011;32289;42.688;23.330;2023-04-24T10:51:50;7.72;;;2.67;;
46561;SDS011;32289;42.688;23.330;2023-04-24T10:55:43;3.47;;;2.42;;
46561;SDS011;32289;42.688;23.330;2023-04-24T10:59:26;6.55;;;2.08;;
46561;SDS011;32289;42.688;23.330;2023-04-24T11:03:22;7.97;;;4.00;;
46561;SDS011;32289;42.688;23.330;2023-04-24T11:07:07;3.90;;;2.33;;
46561;SDS011;32289;42.688;23.330;2023-04-24T11:10:57;4.88;;;3.10;;
46561;SDS011;32289;42.688;23.330;2023-04-24T11:14:59;7.97;;;2.80;;
46561;SDS011;32289;42.688;23.330;2023-04-24T11:18:44;3.83;;;2.50;;
46561;SDS011;32289;42.688;23.330;2023-04-24T11:22:31;4.68;;;2.65;;
46561;SDS011;32289;42.688;23.330;2023-04-24T11:26:18;5.55;;;3.30;;
46561;SDS011;32289;42.688;23.330;2023-04-24T11:30:03;5.47;;;2.88;;
46561;SDS011;32289;42.688;23.330;2023-04-24T11:33:44;6.55;;;2.42;;
46561;SDS011;32289;42.688;23.330;2023-04-24T11:37:27;4.15;;;3.08;;
46561;SDS011;32289;42.688;23.330;2023-04-24T11:41:13;5.70;;;2.88;;
46561;SDS011;32289;42.688;23.330;2023-04-24T11:44:54;9.30;;;4.53;;
46561;SDS011;32289;42.688;23.330;2023-04-24T11:48:35;3.42;;;2.55;;
46561;SDS011;32289;42.688;23.330;2023-04-24T11:52:19;5.57;;;3.35;;
46561;SDS011;32289;42.688;23.330;2023-04-24T11:56:03;4.30;;;2.83;;
46561;SDS011;32289;42.688;23.330;2023-04-24T11:59:44;4.78;;;2.10;;
46561;SDS011;32289;42.688;23.330;2023-04-24T12:03:26;4.43;;;2.38;;
46561;SDS011;32289;42.688;23.330;2023-04-24T12:07:07;4.53;;;1.70;;
46561;SDS011;32289;42.688;23.330;2023-04-24T12:10:48;3.70;;;1.85;;
46561;SDS011;32289;42.688;23.330;2023-04-24T12:14:31;4.10;;;2.03;;
46561;SDS011;32289;42.688;23.330;2023-04-24T12:18:12;2.10;;;1.60;;
46561;SDS011;32289;42.688;23.330;2023-04-24T12:22:00;4.13;;;2.20;;
46561;SDS011;32289;42.688;23.330;2023-04-24T12:25:43;3.17;;;2.00;;
46561;SDS011;32289;42.688;23.330;2023-04-24T12:29:24;2.53;;;1.73;;
46561;SDS011;32289;42.688;23.330;2023-04-24T12:33:05;5.18;;;2.70;;
46561;SDS011;32289;42.688;23.330;2023-04-24T12:36:46;8.43;;;2.45;;
46561;SDS011;32289;42.688;23.330;2023-04-24T12:40:27;5.00;;;2.08;;
46561;SDS011;32289;42.688;23.330;2023-04-24T12:44:10;2.72;;;2.03;;
46561;SDS011;32289;42.688;23.330;2023-04-24T12:47:51;3.97;;;1.67;;
46561;SDS011;32289;42.688;23.330;2023-04-24T12:51:31;2.03;;;1.63;;
46561;SDS011;32289;42.688;23.330;2023-04-24T12:55:12;3.92;;;2.03;;
46561;SDS011;32289;42.688;23.330;2023-04-24T12:58:53;2.67;;;1.70;;
46561;SDS011;32289;42.688;23.330;2023-04-24T13:02:33;3.72;;;1.85;;
46561;SDS011;32289;42.688;23.330;2023-04-24T13:06:14;2.80;;;1.77;;
46561;SDS011;32289;42.688;23.330;2023-04-24T13:09:55;2.47;;;1.83;;
46561;SDS011;32289;42.688;23.330;2023-04-24T13:13:37;3.40;;;2.10;;
46561;SDS011;32289;42.688;23.330;2023-04-24T13:17:18;2.83;;;1.95;;
46561;SDS011;32289;42.688;23.330;2023-04-24T13:20:59;4.72;;;2.20;;
46561;SDS011;32289;42.688;23.330;2023-04-24T13:24:39;2.90;;;2.05;;
46561;SDS011;32289;42.688;23.330;2023-04-24T13:28:21;3.78;;;2.53;;
46561;SDS011;32289;42.688;23.330;2023-04-24T13:32:02;3.80;;;2.58;;
46561;SDS011;32289;42.688;23.330;2023-04-24T13:35:43;5.60;;;2.20;;
46561;SDS011;32289;42.688;23.330;2023-04-24T13:39:24;4.82;;;1.98;;
46561;SDS011;32289;42.688;23.330;2023-04-24T13:43:05;3.97;;;1.95;;
46561;SDS011;32289;42.688;23.330;2023-04-24T13:46:47;2.95;;;1.90;;
46561;SDS011;32289;42.688;23.330;2023-04-24T13:50:30;3.72;;;2.20;;
46561;SDS011;32289;42.688;23.330;2023-04-24T13:54:11;3.83;;;1.90;;
46561;SDS011;32289;42.688;23.330;2023-04-24T13:57:51;3.78;;;2.45;;
46561;SDS011;32289;42.688;23.330;2023-04-24T14:01:35;3.47;;;2.60;;
46561;SDS011;32289;42.688;23.330;2023-04-24T14:05:15;5.40;;;2.40;;
46561;SDS011;32289;42.688;23.330;2023-04-24T14:08:56;3.90;;;2.08;;
46561;SDS011;32289;42.688;23.330;2023-04-24T14:12:37;4.57;;;2.05;;
46561;SDS011;32289;42.688;23.330;2023-04-24T14:16:18;5.30;;;2.40;;
46561;SDS011;32289;42.688;23.330;2023-04-24T14:19:58;6.60;;;2.45;;
46561;SDS011;32289;42.688;23.330;2023-04-24T14:23:40;4.07;;;2.00;;
46561;SDS011;32289;42.688;23.330;2023-04-24T14:27:21;2.88;;;1.95;;
46561;SDS011;32289;42.688;23.330;2023-04-24T14:31:01;3.92;;;2.10;;
46561;SDS011;32289;42.688;23.330;2023-04-24T14:34:42;3.53;;;1.88;;
46561;SDS011;32289;42.688;23.330;2023-04-24T14:38:23;3.53;;;1.90;;
46561;SDS011;32289;42.688;23.330;2023-04-24T14:42:04;3.50;;;2.10;;
46561;SDS011;32289;42.688;23.330;2023-04-24T14:45:44;2.35;;;1.67;;
46561;SDS011;32289;42.688;23.330;2023-04-24T14:49:25;4.25;;;2.00;;
46561;SDS011;32289;42.688;23.330;2023-04-24T14:53:06;4.00;;;2.13;;
46561;SDS011;32289;42.688;23.330;2023-04-24T14:56:47;3.40;;;1.85;;
46561;SDS011;32289;42.688;23.330;2023-04-24T15:00:28;3.95;;;1.88;;
46561;SDS011;32289;42.688;23.330;2023-04-24T15:04:08;7.05;;;2.03;;
46561;SDS011;32289;42.688;23.330;2023-04-24T15:07:49;4.82;;;2.05;;
46561;SDS011;32289;42.688;23.330;2023-04-24T15:11:30;2.38;;;1.67;;
46561;SDS011;32289;42.688;23.330;2023-04-24T15:15:11;3.72;;;2.45;;
46561;SDS011;32289;42.688;23.330;2023-04-24T15:18:52;4.07;;;2.45;;
46561;SDS011;32289;42.688;23.330;2023-04-24T15:22:33;4.25;;;2.47;;
46561;SDS011;32289;42.688;23.330;2023-04-24T15:26:14;4.95;;;2.00;;
46561;SDS011;32289;42.688;23.330;2023-04-24T15:29:55;6.38;;;2.53;;
46561;SDS011;32289;42.688;23.330;2023-04-24T15:33:37;3.47;;;2.22;;
46561;SDS011;32289;42.688;23.330;2023-04-24T15:37:18;5.00;;;2.55;;
46561;SDS011;32289;42.688;23.330;2023-04-24T15:40:59;3.80;;;2.22;;
46561;SDS011;32289;42.688;23.330;2023-04-24T15:44:40;3.50;;;2.33;;
46561;SDS011;32289;42.688;23.330;2023-04-24T15:48:21;4.32;;;2.58;;
46561;SDS011;32289;42.688;23.330;2023-04-24T15:52:01;5.85;;;3.28;;
46561;SDS011;32289;42.688;23.330;2023-04-24T15:55:42;5.63;;;3.15;;
46561;SDS011;32289;42.688;23.330;2023-04-24T15:59:23;6.32;;;3.45;;
46561;SDS011;32289;42.688;23.330;2023-04-24T16:03:04;6.07;;;3.85;;
46561;SDS011;32289;42.688;23.330;2023-04-24T16:06:44;5.07;;;3.53;;
46561;SDS011;32289;42.688;23.330;2023-04-24T16:10:25;5.18;;;3.38;;
46561;SDS011;32289;42.688;23.330;2023-04-24T16:14:06;8.48;;;3.60;;
46561;SDS011;32289;42.688;23.330;2023-04-24T16:17:49;7.15;;;3.58;;
46561;SDS011;32289;42.688;23.330;2023-04-24T16:21:30;7.22;;;3.83;;
46561;SDS011;32289;42.688;23.330;2023-04-24T16:25:11;9.50;;;3.58;;
46561;SDS011;32289;42.688;23.330;2023-04-24T16:28:52;6.68;;;3.20;;
46561;SDS011;32289;42.688;23.330;2023-04-24T16:32:34;6.07;;;3.25;;
46561;SDS011;32289;42.688;23.330;2023-04-24T16:36:15;7.40;;;3.67;;
46561;SDS011;32289;42.688;23.330;2023-04-24T16:39:56;6.65;;;3.63;;
46561;SDS011;32289;42.688;23.330;2023-04-24T16:43:37;5.40;;;3.15;;
46561;SDS011;32289;42.688;23.330;2023-04-24T16:47:18;6.78;;;3.35;;
46561;SDS011;32289;42.688;23.330;2023-04-24T16:51:02;4.68;;;3.63;;
46561;SDS011;32289;42.688;23.330;2023-04-24T16:54:43;5.88;;;3.60;;
46561;SDS011;32289;42.688;23.330;2023-04-24T16:58:24;7.57;;;3.72;;
46561;SDS011;32289;42.688;23.330;2023-04-24T17:02:05;6.93;;;3.88;;
46561;SDS011;32289;42.688;23.330;2023-04-24T17:05:47;5.60;;;3.13;;
46561;SDS011;32289;42.688;23.330;2023-04-24T17:09:29;4.95;;;3.45;;
46561;SDS011;32289;42.688;23.330;2023-04-24T17:13:10;7.35;;;3.80;;
46561;SDS011;32289;42.688;23.330;2023-04-24T17:16:53;7.13;;;4.13;;
46561;SDS011;32289;42.688;23.330;2023-04-24T17:20:34;12.40;;;6.22;;
46561;SDS011;32289;42.688;23.330;2023-04-24T17:24:16;18.92;;;9.23;;
46561;SDS011;32289;42.688;23.330;2023-04-24T17:27:57;12.63;;;6.38;;
46561;SDS011;32289;42.688;23.330;2023-04-24T17:31:38;7.95;;;4.85;;
46561;SDS011;32289;42.688;23.330;2023-04-24T17:35:19;7.93;;;4.47;;
46561;SDS011;32289;42.688;23.330;2023-04-24T17:39:00;11.32;;;5.43;;
46561;SDS011;32289;42.688;23.330;2023-04-24T17:42:41;9.07;;;4.53;;
46561;SDS011;32289;42.688;23.330;2023-04-24T17:46:22;6.07;;;4.25;;
46561;SDS011;32289;42.688;23.330;2023-04-24T17:50:02;15.27;;;5.80;;
46561;SDS011;32289;42.688;23.330;2023-04-24T17:53:43;11.13;;;6.93;;
46561;SDS011;32289;42.688;23.330;2023-04-24T17:57:24;12.38;;;5.43;;
46561;SDS011;32289;42.688;23.330;2023-04-24T18:01:05;13.73;;;6.85;;
46561;SDS011;32289;42.688;23.330;2023-04-24T18:04:46;12.10;;;5.32;;
46561;SDS011;32289;42.688;23.330;2023-04-24T18:08:26;16.88;;;8.88;;
46561;SDS011;32289;42.688;23.330;2023-04-24T18:12:07;13.10;;;6.35;;
46561;SDS011;32289;42.688;23.330;2023-04-24T18:15:52;10.70;;;5.22;;
46561;SDS011;32289;42.688;23.330;2023-04-24T18:19:33;8.95;;;4.10;;
46561;SDS011;32289;42.688;23.330;2023-04-24T18:23:13;4.40;;;3.17;;
46561;SDS011;32289;42.688;23.330;2023-04-24T18:26:54;4.85;;;2.30;;
46561;SDS011;32289;42.688;23.330;2023-04-24T18:30:36;5.78;;;1.98;;
46561;SDS011;32289;42.688;23.330;2023-04-24T18:34:17;2.65;;;1.73;;
46561;SDS011;32289;42.688;23.330;2023-04-24T18:37:58;2.40;;;1.33;;
46561;SDS011;32289;42.688;23.330;2023-04-24T18:41:38;5.93;;;1.60;;
46561;SDS011;32289;42.688;23.330;2023-04-24T18:45:19;5.85;;;2.85;;
46561;SDS011;32289;42.688;23.330;2023-04-24T18:49:00;6.95;;;2.67;;
46561;SDS011;32289;42.688;23.330;2023-04-24T18:52:42;6.32;;;2.83;;
46561;SDS011;32289;42.688;23.330;2023-04-24T18:56:22;9.27;;;3.35;;
46561;SDS011;32289;42.688;23.330;2023-04-24T19:00:03;3.67;;;2.15;;
46561;SDS011;32289;42.688;23.330;2023-04-24T19:03:45;5.47;;;2.90;;
46561;SDS011;32289;42.688;23.330;2023-04-24T19:07:26;3.42;;;2.30;;
46561;SDS011;32289;42.688;23.330;2023-04-24T19:11:08;3.45;;;1.75;;
46561;SDS011;32289;42.688;23.330;2023-04-24T19:14:49;4.93;;;2.10;;
46561;SDS011;32289;42.688;23.330;2023-04-24T19:18:30;6.03;;;2.53;;
46561;SDS011;32289;42.688;23.330;2023-04-24T19:22:11;4.10;;;2.28;;
46561;SDS011;32289;42.688;23.330;2023-04-24T19:25:52;4.40;;;2.40;;
46561;SDS011;32289;42.688;23.330;2023-04-24T19:29:33;8.70;;;3.55;;
46561;SDS011;32289;42.688;23.330;2023-04-24T19:33:13;9.13;;;3.03;;
46561;SDS011;32289;42.688;23.330;2023-04-24T19:36:54;5.47;;;3.20;;
46561;SDS011;32289;42.688;23.330;2023-04-24T19:40:35;5.68;;;3.00;;
46561;SDS011;32289;42.688;23.330;2023-04-24T19:44:16;4.00;;;2.85;;
46561;SDS011;32289;42.688;23.330;2023-04-24T19:47:57;6.38;;;3.00;;
46561;SDS011;32289;42.688;23.330;2023-04-24T19:51:39;4.97;;;2.67;;
46561;SDS011;32289;42.688;23.330;2023-04-24T19:55:20;4.50;;;2.75;;
46561;SDS011;32289;42.688;23.330;2023-04-24T19:59:00;3.58;;;2.10;;
46561;SDS011;32289;42.688;23.330;2023-04-24T20:02:41;4.57;;;2.10;;
46561;SDS011;32289;42.688;23.330;2023-04-24T20:06:22;3.63;;;2.13;;
46561;SDS011;32289;42.688;23.330;2023-04-24T20:10:03;6.32;;;2.13;;
46561;SDS011;32289;42.688;23.330;2023-04-24T20:13:46;7.82;;;2.72;;
46561;SDS011;32289;42.688;23.330;2023-04-24T20:17:47;4.40;;;2.55;;
46561;SDS011;32289;42.688;23.330;2023-04-24T20:21:28;4.28;;;1.20;;
46561;SDS011;32289;42.688;23.330;2023-04-24T20:25:09;4.88;;;2.67;;
46561;SDS011;32289;42.688;23.330;2023-04-24T20:28:53;2.80;;;1.55;;
46561;SDS011;32289;42.688;23.330;2023-04-24T20:32:33;4.30;;;1.80;;
46561;SDS011;32289;42.688;23.330;2023-04-24T20:36:16;3.15;;;1.55;;
46561;SDS011;32289;42.688;23.330;2023-04-24T20:39:57;4.40;;;2.33;;
46561;SDS011;32289;42.688;23.330;2023-04-24T20:43:38;8.23;;;4.00;;
46561;SDS011;32289;42.688;23.330;2023-04-24T20:47:22;5.88;;;3.10;;
46561;SDS011;32289;42.688;23.330;2023-04-24T20:51:03;5.53;;;2.55;;
46561;SDS011;32289;42.688;23.330;2023-04-24T20:54:43;4.53;;;2.42;;
46561;SDS011;32289;42.688;23.330;2023-04-24T20:58:25;3.45;;;2.13;;
46561;SDS011;32289;42.688;23.330;2023-04-24T21:02:06;3.53;;;1.75;;
46561;SDS011;32289;42.688;23.330;2023-04-24T21:05:47;5.90;;;2.55;;
46561;SDS011;32289;42.688;23.330;2023-04-24T21:09:27;5.13;;;1.98;;
46561;SDS011;32289;42.688;23.330;2023-04-24T21:13:08;2.92;;;1.70;;
46561;SDS011;32289;42.688;23.330;2023-04-24T21:16:49;5.22;;;1.90;;
46561;SDS011;32289;42.688;23.330;2023-04-24T21:20:30;2.35;;;1.27;;
46561;SDS011;32289;42.688;23.330;2023-04-24T21:24:11;4.82;;;1.00;;
46561;SDS011;32289;42.688;23.330;2023-04-24T21:27:52;2.47;;;1.17;;
46561;SDS011;32289;42.688;23.330;2023-04-24T21:31:32;4.30;;;1.00;;
46561;SDS011;32289;42.688;23.330;2023-04-24T21:35:13;2.67;;;1.15;;
46561;SDS011;32289;42.688;23.330;2023-04-24T21:38:54;1.98;;;1.00;;
46561;SDS011;32289;42.688;23.330;2023-04-24T21:42:34;3.47;;;1.75;;
46561;SDS011;32289;42.688;23.330;2023-04-24T21:46:15;2.03;;;1.00;;
46561;SDS011;32289;42.688;23.330;2023-04-24T21:49:56;2.45;;;1.10;;
46561;SDS011;32289;42.688;23.330;2023-04-24T21:53:39;1.25;;;0.80;;
46561;SDS011;32289;42.688;23.330;2023-04-24T21:57:20;2.05;;;1.00;;